createdAt,value
2018-09-06T00:02:24.735Z,24.76
2018-09-06T00:04:51.442Z,24.73
2018-09-06T00:07:18.055Z,24.73
2018-09-06T00:09:44.752Z,24.72
2018-09-06T00:12:11.429Z,24.71
2018-09-06T00:14:39.493Z,24.66
2018-09-06T00:17:04.691Z,24.69
2018-09-06T00:19:31.649Z,24.66
2018-09-06T00:21:58.346Z,24.68
2018-09-06T00:24:26.076Z,24.68
2018-09-06T00:26:51.744Z,24.68
2018-09-06T00:29:19.698Z,24.66
2018-09-06T00:31:45.113Z,24.69
2018-09-06T00:34:11.818Z,24.66
2018-09-06T00:36:38.430Z,24.63
2018-09-06T00:39:05.119Z,24.66
2018-09-06T00:41:31.754Z,24.61
2018-09-06T00:43:58.495Z,24.62
2018-09-06T00:46:25.285Z,24.63
2018-09-06T00:48:52.040Z,24.61
2018-09-06T00:51:18.735Z,24.60
2018-09-06T00:53:45.386Z,24.58
2018-09-06T00:56:12.062Z,24.60
2018-09-06T00:58:41.321Z,24.61
2018-09-06T01:01:08.061Z,24.59
2018-09-06T01:03:34.705Z,24.58
2018-09-06T01:06:01.342Z,24.52
2018-09-06T01:08:28.020Z,24.59
2018-09-06T01:10:54.655Z,24.57
2018-09-06T01:13:21.366Z,24.56
2018-09-06T01:15:47.957Z,24.54
2018-09-06T01:18:14.670Z,24.50
2018-09-06T01:20:41.362Z,24.53
2018-09-06T01:23:07.992Z,24.51
2018-09-06T01:25:34.630Z,24.47
2018-09-06T01:28:01.334Z,24.45
2018-09-06T01:30:29.252Z,24.44
2018-09-06T01:32:54.702Z,24.46
2018-09-06T01:35:22.536Z,24.49
2018-09-06T01:37:47.979Z,24.47
2018-09-06T01:40:14.583Z,24.49
2018-09-06T01:42:41.265Z,24.47
2018-09-06T01:45:07.920Z,24.48
2018-09-06T01:47:34.554Z,24.46
2018-09-06T01:50:01.202Z,24.47
2018-09-06T01:52:27.899Z,24.46
2018-09-06T01:54:54.671Z,24.42
2018-09-06T01:57:21.304Z,24.40
2018-09-06T01:59:49.281Z,24.41
2018-09-06T02:02:17.613Z,24.42
2018-09-06T02:04:44.302Z,24.41
2018-09-06T02:07:10.943Z,24.44
2018-09-06T02:09:37.700Z,24.41
2018-09-06T02:12:04.383Z,24.39
2018-09-06T02:14:31.015Z,24.37
2018-09-06T02:16:59.702Z,24.38
2018-09-06T02:19:28.898Z,24.40
2018-09-06T02:21:50.991Z,24.32
2018-09-06T02:24:17.661Z,24.31
2018-09-06T02:26:44.278Z,24.39
2018-09-06T02:29:10.915Z,24.28
2018-09-06T02:31:37.591Z,24.35
2018-09-06T02:34:04.250Z,24.33
2018-09-06T02:36:30.903Z,24.35
2018-09-06T02:38:57.552Z,24.37
2018-09-06T02:41:24.345Z,24.31
2018-09-06T02:43:50.962Z,24.35
2018-09-06T02:46:17.680Z,24.32
2018-09-06T02:48:44.320Z,24.30
2018-09-06T02:51:11.027Z,24.28
2018-09-06T02:53:37.685Z,24.31
2018-09-06T02:56:04.333Z,24.30
2018-09-06T02:58:30.983Z,24.27
2018-09-06T03:00:57.678Z,24.28
2018-09-06T03:03:24.475Z,24.27
2018-09-06T03:05:51.343Z,24.34
2018-09-06T03:08:18.024Z,24.28
2018-09-06T03:10:44.709Z,24.27
2018-09-06T03:13:11.434Z,24.26
2018-09-06T03:15:38.080Z,24.27
2018-09-06T03:18:04.720Z,24.25
2018-09-06T03:20:31.369Z,24.25
2018-09-06T03:22:58.006Z,24.24
2018-09-06T03:25:27.660Z,24.28
2018-09-06T03:27:54.324Z,24.26
2018-09-06T03:30:25.262Z,24.29
2018-09-06T03:32:50.280Z,24.27
2018-09-06T03:35:16.997Z,24.24
2018-09-06T03:37:43.689Z,24.23
2018-09-06T03:40:10.361Z,24.21
2018-09-06T03:42:40.045Z,24.26
2018-09-06T03:45:06.741Z,24.21
2018-09-06T03:47:33.438Z,24.19
2018-09-06T03:50:00.177Z,24.19
2018-09-06T03:52:26.852Z,24.17
2018-09-06T03:54:55.534Z,24.16
2018-09-06T03:57:22.286Z,24.18
2018-09-06T03:59:48.918Z,24.20
2018-09-06T04:02:15.590Z,24.17
2018-09-06T04:04:43.728Z,24.22
2018-09-06T04:07:08.865Z,24.19
2018-09-06T04:09:35.547Z,24.15
2018-09-06T04:12:02.180Z,24.18
2018-09-06T04:14:28.852Z,24.15
2018-09-06T04:16:55.534Z,24.12
2018-09-06T04:19:22.170Z,24.13
2018-09-06T04:21:48.817Z,24.16
2018-09-06T04:24:15.537Z,24.12
2018-09-06T04:26:42.139Z,24.14
2018-09-06T04:29:08.773Z,24.16
2018-09-06T04:31:35.472Z,24.13
2018-09-06T04:34:02.113Z,24.15
2018-09-06T04:36:28.746Z,24.09
2018-09-06T04:38:55.385Z,24.16
2018-09-06T04:41:22.042Z,24.27
2018-09-06T04:43:48.717Z,24.31
2018-09-06T04:46:16.652Z,24.30
2018-09-06T04:48:44.882Z,24.35
2018-09-06T04:51:11.559Z,24.43
2018-09-06T04:53:38.201Z,24.56
2018-09-06T04:56:04.926Z,24.55
2018-09-06T04:58:31.697Z,24.61
2018-09-06T05:00:58.233Z,24.75
2018-09-06T05:03:24.838Z,24.82
2018-09-06T05:05:51.480Z,24.84
2018-09-06T05:08:18.125Z,24.90
2018-09-06T05:10:44.763Z,24.92
2018-09-06T05:13:11.424Z,25.00
2018-09-06T05:15:38.099Z,25.04
2018-09-06T05:18:04.712Z,25.13
2018-09-06T05:20:31.394Z,25.14
2018-09-06T05:22:58.034Z,25.19
2018-09-06T05:25:25.327Z,25.28
2018-09-06T05:27:52.001Z,25.31
2018-09-06T05:30:18.638Z,25.39
2018-09-06T05:32:45.277Z,25.32
2018-09-06T05:35:11.923Z,25.36
2018-09-06T05:37:39.940Z,25.40
2018-09-06T05:40:05.215Z,25.45
2018-09-06T05:42:33.970Z,25.55
2018-09-06T05:44:58.543Z,25.56
2018-09-06T05:47:26.668Z,25.56
2018-09-06T05:49:51.968Z,25.64
2018-09-06T05:52:18.612Z,25.64
2018-09-06T05:54:45.301Z,25.73
2018-09-06T05:57:12.015Z,25.75
2018-09-06T05:59:38.698Z,25.74
2018-09-06T06:02:05.266Z,25.77
2018-09-06T06:04:31.952Z,25.76
2018-09-06T06:06:58.604Z,25.49
2018-09-06T06:09:26.507Z,25.26
2018-09-06T06:11:51.928Z,25.24
2018-09-06T06:14:18.536Z,25.28
2018-09-06T06:16:48.020Z,25.37
2018-09-06T06:19:16.903Z,25.37
2018-09-06T06:21:41.404Z,25.38
2018-09-06T06:24:08.158Z,25.43
2018-09-06T06:26:34.806Z,25.40
2018-09-06T06:29:01.454Z,25.45
2018-09-06T06:31:28.182Z,25.54
2018-09-06T06:33:54.917Z,25.59
2018-09-06T06:36:21.542Z,25.64
2018-09-06T06:38:48.269Z,25.68
2018-09-06T06:41:16.143Z,25.60
2018-09-06T06:43:42.951Z,25.70
2018-09-06T06:46:08.192Z,25.77
2018-09-06T06:48:34.832Z,25.81
2018-09-06T06:51:01.491Z,25.80
2018-09-06T06:53:28.137Z,25.73
2018-09-06T06:55:54.877Z,25.68
2018-09-06T06:58:21.523Z,25.71
2018-09-06T07:00:48.206Z,25.79
2018-09-06T07:03:14.881Z,25.87
2018-09-06T07:05:41.552Z,25.93
2018-09-06T07:08:08.189Z,25.91
2018-09-06T07:10:34.898Z,25.89
2018-09-06T07:13:01.635Z,25.87
2018-09-06T07:15:28.276Z,25.94
2018-09-06T07:17:54.922Z,25.71
2018-09-06T07:20:21.602Z,25.52
2018-09-06T07:22:48.217Z,25.57
2018-09-06T07:25:14.858Z,25.64
2018-09-06T07:27:41.564Z,25.70
2018-09-06T07:30:08.201Z,25.74
2018-09-06T07:32:34.839Z,25.74
2018-09-06T07:35:01.496Z,25.76
2018-09-06T07:37:28.133Z,25.72
2018-09-06T07:39:54.817Z,25.74
2018-09-06T07:42:21.467Z,25.78
2018-09-06T07:44:48.115Z,25.97
2018-09-06T07:47:14.751Z,25.96
2018-09-06T07:49:41.504Z,25.86
2018-09-06T07:52:08.209Z,25.94
2018-09-06T07:54:34.835Z,25.98
2018-09-06T07:57:01.521Z,26.05
2018-09-06T07:59:28.917Z,25.96
2018-09-06T08:01:56.681Z,25.71
2018-09-06T08:04:22.394Z,25.67
2018-09-06T08:06:49.049Z,25.60
2018-09-06T08:09:15.685Z,25.77
2018-09-06T08:11:42.368Z,25.84
2018-09-06T08:14:09.026Z,25.93
2018-09-06T08:16:35.686Z,25.90
2018-09-06T08:19:02.340Z,25.91
2018-09-06T08:21:28.963Z,25.96
2018-09-06T08:23:55.601Z,25.98
2018-09-06T08:26:25.517Z,26.00
2018-09-06T08:28:53.219Z,25.93
2018-09-06T08:31:18.946Z,25.70
2018-09-06T08:33:45.588Z,25.65
2018-09-06T08:36:12.236Z,25.73
2018-09-06T08:38:38.983Z,25.86
2018-09-06T08:41:05.670Z,25.93
2018-09-06T08:43:32.312Z,26.07
2018-09-06T08:45:58.949Z,26.05
2018-09-06T08:48:25.691Z,25.88
2018-09-06T08:50:52.426Z,25.69
2018-09-06T08:53:19.167Z,25.84
2018-09-06T08:55:45.813Z,25.93
2018-09-06T08:58:12.449Z,26.05
2018-09-06T09:00:39.101Z,26.07
2018-09-06T09:03:05.866Z,26.10
2018-09-06T09:05:32.407Z,25.96
2018-09-06T09:07:59.054Z,25.82
2018-09-06T09:10:25.782Z,25.77
2018-09-06T09:12:52.431Z,25.93
2018-09-06T09:15:19.219Z,25.97
2018-09-06T09:17:45.870Z,26.05
2018-09-06T09:20:12.471Z,26.11
2018-09-06T09:22:39.108Z,26.04
2018-09-06T09:25:05.798Z,25.80
2018-09-06T09:27:32.580Z,25.68
2018-09-06T09:29:59.202Z,25.72
2018-09-06T09:32:25.919Z,25.97
2018-09-06T09:34:52.587Z,26.05
2018-09-06T09:37:19.205Z,26.09
2018-09-06T09:39:45.930Z,26.17
2018-09-06T09:42:14.904Z,26.18
2018-09-06T09:44:39.361Z,26.16
2018-09-06T09:49:31.863Z,26.08
2018-09-06T09:51:58.451Z,25.88
2018-09-06T09:54:25.095Z,25.66
2018-09-06T09:56:52.322Z,25.78
2018-09-06T09:59:18.905Z,25.91
2018-09-06T10:01:45.537Z,26.04
2018-09-06T10:04:12.207Z,26.10
2018-09-06T10:06:43.675Z,26.17
2018-09-06T10:09:05.616Z,26.22
2018-09-06T10:11:35.389Z,26.11
2018-09-06T10:14:02.101Z,26.11
2018-09-06T10:16:28.738Z,26.23
2018-09-06T10:18:55.373Z,26.28
2018-09-06T10:21:22.086Z,26.07
2018-09-06T10:23:48.716Z,25.80
2018-09-06T10:26:17.262Z,25.87
2018-09-06T10:28:43.956Z,25.86
2018-09-06T10:31:09.266Z,26.01
2018-09-06T10:33:35.999Z,26.12
2018-09-06T10:36:03.661Z,26.15
2018-09-06T10:38:29.300Z,26.08
2018-09-06T10:40:55.920Z,26.19
2018-09-06T10:43:22.605Z,26.29
2018-09-06T10:45:49.249Z,26.23
2018-09-06T10:48:15.972Z,25.99
2018-09-06T10:50:42.719Z,25.73
2018-09-06T10:53:09.357Z,25.89
2018-09-06T10:55:38.147Z,26.11
2018-09-06T10:58:02.633Z,26.18
2018-09-06T11:00:29.268Z,26.25
2018-09-06T11:02:55.918Z,26.18
2018-09-06T11:05:22.552Z,26.29
2018-09-06T11:07:49.325Z,26.14
2018-09-06T11:10:15.923Z,25.84
2018-09-06T11:12:42.657Z,25.82
2018-09-06T11:15:12.305Z,26.00
2018-09-06T11:17:38.956Z,26.21
2018-09-06T11:20:09.040Z,26.25
2018-09-06T11:22:36.100Z,26.28
2018-09-06T11:25:02.396Z,26.05
2018-09-06T11:27:29.103Z,25.84
2018-09-06T11:29:55.731Z,25.95
2018-09-06T11:32:22.370Z,26.14
2018-09-06T11:34:49.048Z,26.30
2018-09-06T11:37:15.650Z,26.34
2018-09-06T11:39:42.306Z,26.15
2018-09-06T11:42:08.937Z,25.83
2018-09-06T11:44:35.576Z,25.81
2018-09-06T11:47:02.257Z,26.01
2018-09-06T11:49:30.474Z,26.07
2018-09-06T11:51:58.585Z,26.18
2018-09-06T11:54:25.229Z,26.22
2018-09-06T11:56:52.012Z,26.18
2018-09-06T11:59:18.661Z,26.20
2018-09-06T12:01:45.447Z,26.28
2018-09-06T12:04:12.149Z,26.28
2018-09-06T12:06:39.355Z,25.95
2018-09-06T12:09:06.001Z,25.74
2018-09-06T12:11:32.645Z,25.75
2018-09-06T12:13:59.368Z,25.94
2018-09-06T12:16:26.022Z,26.08
2018-09-06T12:18:52.652Z,26.24
2018-09-06T12:21:19.428Z,26.24
2018-09-06T12:23:46.099Z,26.20
2018-09-06T12:26:12.781Z,26.15
2018-09-06T12:28:39.429Z,26.20
2018-09-06T12:31:06.093Z,26.19
2018-09-06T12:33:32.957Z,26.28
2018-09-06T12:35:59.467Z,26.30
2018-09-06T12:38:26.149Z,26.32
2018-09-06T12:40:52.786Z,26.27
2018-09-06T12:43:19.450Z,26.30
2018-09-06T12:45:46.152Z,26.33
2018-09-06T12:48:12.790Z,26.34
2018-09-06T12:50:39.426Z,26.28
2018-09-06T12:53:06.215Z,26.27
2018-09-06T12:55:32.982Z,26.33
2018-09-06T12:57:59.597Z,26.26
2018-09-06T13:00:26.277Z,26.27
2018-09-06T13:02:52.914Z,26.21
2018-09-06T13:05:19.664Z,26.17
2018-09-06T13:07:46.281Z,26.26
2018-09-06T13:10:13.143Z,26.18
2018-09-06T13:12:39.777Z,26.21
2018-09-06T13:15:06.449Z,26.14
2018-09-06T13:17:33.236Z,26.16
2018-09-06T13:19:59.919Z,26.12
2018-09-06T13:22:26.581Z,26.20
2018-09-06T13:24:53.242Z,26.17
2018-09-06T13:27:21.288Z,26.07
2018-09-06T13:29:46.547Z,26.13
2018-09-06T13:32:13.220Z,26.13
2018-09-06T13:34:39.897Z,26.21
2018-09-06T13:37:06.553Z,26.11
2018-09-06T13:42:04.013Z,26.20
2018-09-06T13:44:29.481Z,26.14
2018-09-06T13:47:01.375Z,26.09
2018-09-06T13:49:28.048Z,26.16
2018-09-06T13:51:56.107Z,26.13
2018-09-06T13:54:21.482Z,26.15
2018-09-06T13:56:48.131Z,26.08
2018-09-06T13:59:14.795Z,26.06
2018-09-06T14:01:45.823Z,26.04
2018-09-06T14:04:11.433Z,26.09
2018-09-06T14:06:40.754Z,26.13
2018-09-06T14:09:05.096Z,26.02
2018-09-06T14:11:33.238Z,26.02
2018-09-06T14:13:58.439Z,26.08
2018-09-06T14:16:25.145Z,26.11
2018-09-06T14:18:51.768Z,26.12
2018-09-06T14:21:18.437Z,26.05
2018-09-06T14:23:49.282Z,26.11
2018-09-06T14:26:14.897Z,26.16
2018-09-06T14:28:41.540Z,26.10
2018-09-06T14:31:08.220Z,26.11
2018-09-06T14:33:34.865Z,26.16
2018-09-06T14:36:01.527Z,26.18
2018-09-06T14:38:28.217Z,26.20
2018-09-06T14:40:54.853Z,26.24
2018-09-06T14:43:21.564Z,26.16
2018-09-06T14:45:48.247Z,26.14
2018-09-06T14:48:15.018Z,26.11
2018-09-06T14:50:41.691Z,26.17
2018-09-06T14:53:08.293Z,26.16
2018-09-06T14:55:34.984Z,26.17
2018-09-06T14:58:01.612Z,26.16
2018-09-06T15:00:39.011Z,26.09
2018-09-06T15:03:08.635Z,26.16
2018-09-06T15:05:39.950Z,26.08
2018-09-06T15:08:06.670Z,26.09
2018-09-06T15:10:36.403Z,26.05
2018-09-06T15:13:04.348Z,26.08
2018-09-06T15:15:29.635Z,26.11
2018-09-06T15:18:12.014Z,26.13
2018-09-06T15:20:23.012Z,26.15
2018-09-06T15:22:49.751Z,26.14
2018-09-06T15:25:16.389Z,26.08
2018-09-06T15:27:43.124Z,26.03
2018-09-06T15:30:09.706Z,26.04
2018-09-06T15:32:36.343Z,26.10
2018-09-06T15:35:02.975Z,26.08
2018-09-06T15:37:29.666Z,26.05
2018-09-06T15:39:57.713Z,26.06
2018-09-06T15:42:23.173Z,26.04
2018-09-06T15:44:49.870Z,26.01
2018-09-06T15:47:26.665Z,25.99
2018-09-06T15:49:46.638Z,25.92
2018-09-06T15:52:18.418Z,25.94
2018-09-06T15:54:45.187Z,25.95
2018-09-06T15:57:11.898Z,25.95
2018-09-06T15:59:38.590Z,25.92
2018-09-06T16:02:05.277Z,25.97
2018-09-06T16:04:32.262Z,25.90
2018-09-06T16:07:00.201Z,25.82
2018-09-06T16:09:25.542Z,25.89
2018-09-06T16:11:52.274Z,25.84
2018-09-06T16:14:18.909Z,25.86
2018-09-06T16:16:46.919Z,25.82
2018-09-06T16:19:12.315Z,25.84
2018-09-06T16:21:39.056Z,25.75
2018-09-06T16:24:05.836Z,25.74
2018-09-06T16:26:32.480Z,25.81
2018-09-06T16:28:59.210Z,25.78
2018-09-06T16:31:25.867Z,25.74
2018-09-06T16:33:53.908Z,25.77
2018-09-06T16:36:20.182Z,25.78
2018-09-06T16:38:45.936Z,25.69
2018-09-06T16:41:12.578Z,25.68
2018-09-06T16:43:39.237Z,25.70
2018-09-06T16:46:15.823Z,25.68
2018-09-06T16:48:40.965Z,25.67
2018-09-06T16:53:53.402Z,25.61
2018-09-06T16:56:20.142Z,25.61
2018-09-06T16:58:46.828Z,25.62
2018-09-06T17:01:19.954Z,25.61
2018-09-06T17:03:44.960Z,25.59
2018-09-06T17:06:14.815Z,25.58
2018-09-06T17:08:41.456Z,25.51
2018-09-06T17:11:13.297Z,25.59
2018-09-06T17:13:37.939Z,25.53
2018-09-06T17:16:04.546Z,25.56
2018-09-06T17:18:31.249Z,25.49
2018-09-06T17:20:58.585Z,25.51
2018-09-06T17:23:25.327Z,25.53
2018-09-06T17:25:51.965Z,25.53
2018-09-06T17:28:20.145Z,25.47
2018-09-06T17:30:51.176Z,25.50
2018-09-06T17:33:18.232Z,25.46
2018-09-06T17:35:44.833Z,25.42
2018-09-06T17:38:11.484Z,25.45
2018-09-06T17:40:38.172Z,25.46
2018-09-06T17:43:04.817Z,25.42
2018-09-06T17:45:34.149Z,25.39
2018-09-06T17:48:00.785Z,25.43
2018-09-06T17:50:27.490Z,25.40
2018-09-06T17:52:54.130Z,25.38
2018-09-06T17:55:22.255Z,25.38
2018-09-06T17:57:47.466Z,25.37
2018-09-06T18:00:17.369Z,25.36
2018-09-06T18:02:44.063Z,25.36
2018-09-06T18:05:10.804Z,25.36
2018-09-06T18:07:43.838Z,25.36
2018-09-06T18:10:07.356Z,25.34
2018-09-06T18:12:34.048Z,25.31
2018-09-06T18:15:05.740Z,25.33
2018-09-06T18:17:27.367Z,25.31
2018-09-06T18:19:57.426Z,25.33
2018-09-06T18:22:24.127Z,25.31
2018-09-06T18:24:50.766Z,25.33
2018-09-06T18:27:21.051Z,25.31
2018-09-06T18:29:46.129Z,25.27
2018-09-06T18:32:13.955Z,25.29
2018-09-06T18:34:40.593Z,25.26
2018-09-06T18:37:07.273Z,25.25
2018-09-06T18:39:33.965Z,25.22
2018-09-06T18:42:00.644Z,25.21
2018-09-06T18:44:27.286Z,25.23
2018-09-06T18:46:56.037Z,25.18
2018-09-06T18:49:20.609Z,25.21
2018-09-06T18:51:47.293Z,25.17
2018-09-06T18:54:13.926Z,25.16
2018-09-06T18:56:40.636Z,25.16
2018-09-06T18:59:07.321Z,25.15
2018-09-06T19:01:34.008Z,25.14
2018-09-06T19:04:04.057Z,25.13
2018-09-06T19:06:30.747Z,25.13
2018-09-06T19:08:57.426Z,25.11
2018-09-06T19:11:24.067Z,25.11
2018-09-06T19:13:50.751Z,25.10
2018-09-06T19:16:17.391Z,25.11
2018-09-06T19:18:44.128Z,25.09
2018-09-06T19:21:10.802Z,25.09
2018-09-06T19:23:37.470Z,25.08
2018-09-06T19:26:05.976Z,25.09
2018-09-06T19:28:30.790Z,25.01
2018-09-06T19:30:58.619Z,25.01
2018-09-06T19:33:25.543Z,25.05
2018-09-06T19:35:52.677Z,25.04
2018-09-06T19:38:22.352Z,25.02
2018-09-06T19:40:48.985Z,24.99
2018-09-06T19:43:16.960Z,24.97
2018-09-06T19:45:42.340Z,24.99
2018-09-06T19:48:09.002Z,24.96
2018-09-06T19:50:35.638Z,24.97
2018-09-06T19:53:02.318Z,24.91
2018-09-06T19:55:28.953Z,24.89
2018-09-06T19:57:56.786Z,24.88
2018-09-06T20:00:23.629Z,24.88
2018-09-06T20:02:48.938Z,24.88
2018-09-06T20:05:17.737Z,24.84
2018-09-06T20:07:42.276Z,24.87
2018-09-06T20:10:08.917Z,24.85
2018-09-06T20:12:35.657Z,24.82
2018-09-06T20:15:02.300Z,24.84
2018-09-06T20:17:28.973Z,24.79
2018-09-06T20:19:56.685Z,24.82
2018-09-06T20:22:23.337Z,24.78
2018-09-06T20:24:50.051Z,24.77
2018-09-06T20:27:19.942Z,24.77
2018-09-06T20:29:48.633Z,24.79
2018-09-06T20:32:15.323Z,24.75
2018-09-06T20:34:51.601Z,24.77
2018-09-06T20:37:19.513Z,24.75
2018-09-06T20:39:46.148Z,24.71
2018-09-06T20:42:12.792Z,24.70
2018-09-06T20:44:39.427Z,24.72
2018-09-06T20:47:06.077Z,24.64
2018-09-06T20:49:32.833Z,24.72
2018-09-06T20:51:59.485Z,24.67
2018-09-06T20:54:26.121Z,24.67
2018-09-06T20:56:52.771Z,24.68
2018-09-06T20:59:20.696Z,24.66
2018-09-06T21:01:57.511Z,24.65
2018-09-06T21:04:12.697Z,24.63
2018-09-06T21:06:42.698Z,24.66
2018-09-06T21:09:07.812Z,24.66
2018-09-06T21:11:34.449Z,24.65
2018-09-06T21:14:01.087Z,24.59
2018-09-06T21:16:27.817Z,24.63
2018-09-06T21:18:54.418Z,24.59
2018-09-06T21:21:21.035Z,24.53
2018-09-06T21:23:47.680Z,24.58
2018-09-06T21:26:14.399Z,24.57
2018-09-06T21:28:41.046Z,24.53
2018-09-06T21:31:07.694Z,24.54
2018-09-06T21:33:34.341Z,24.50
2018-09-06T21:36:00.972Z,24.55
2018-09-06T21:38:32.637Z,24.55
2018-09-06T21:40:59.343Z,24.48
2018-09-06T21:43:26.020Z,24.47
2018-09-06T21:45:52.633Z,24.43
2018-09-06T21:48:19.276Z,24.47
2018-09-06T21:50:55.477Z,24.48
2018-09-06T21:53:17.595Z,24.47
2018-09-06T21:55:44.245Z,24.47
2018-09-06T21:58:17.504Z,24.45
2018-09-06T22:00:37.563Z,24.41
2018-09-06T22:03:04.183Z,24.44
2018-09-06T22:05:46.453Z,24.43
2018-09-06T22:07:57.493Z,24.40
2018-09-06T22:10:28.910Z,24.39
2018-09-06T22:12:50.855Z,24.36
2018-09-06T22:15:19.171Z,24.40
2018-09-06T22:17:44.142Z,24.39
2018-09-06T22:20:10.793Z,24.36
2018-09-06T22:22:37.438Z,24.38
2018-09-06T22:25:04.084Z,24.36
2018-09-06T22:27:34.689Z,24.38
2018-09-06T22:30:06.351Z,24.38
2018-09-06T22:32:34.992Z,24.34
2018-09-06T22:35:17.054Z,24.34
2018-09-06T22:37:43.702Z,24.31
2018-09-06T22:40:10.393Z,24.30
2018-09-06T22:42:37.033Z,24.30
2018-09-06T22:45:03.762Z,24.27
2018-09-06T22:47:35.069Z,24.28
2018-09-06T22:50:04.867Z,24.26
2018-09-06T22:52:31.515Z,24.30
2018-09-06T22:54:58.472Z,24.24
2018-09-06T22:57:25.092Z,24.22
2018-09-06T22:59:51.742Z,24.22
2018-09-06T23:02:21.095Z,24.23
2018-09-06T23:05:22.800Z,24.20
2018-09-06T23:07:21.237Z,24.15
2018-09-06T23:09:43.229Z,24.18
2018-09-06T23:12:12.744Z,24.23
2018-09-06T23:14:34.808Z,24.17
2018-09-06T23:17:01.490Z,24.17
2018-09-06T23:19:36.051Z,24.17
2018-09-06T23:21:57.784Z,24.16
2018-09-06T23:24:24.444Z,24.14
2018-09-06T23:26:54.116Z,24.13
2018-09-06T23:29:26.970Z,24.15
2018-09-06T23:31:58.308Z,24.11
2018-09-06T23:34:20.355Z,24.10
2018-09-06T23:36:56.193Z,24.06
2018-09-06T23:39:26.858Z,24.09
2018-09-06T23:42:12.448Z,24.06
2018-09-06T23:44:35.616Z,24.04
2018-09-06T23:47:04.534Z,24.07
2018-09-06T23:49:32.953Z,24.05
2018-09-06T23:54:45.559Z,24.00
2018-09-06T23:57:14.853Z,23.99
